sensor_id;sensor_type;location;lat;lon;timestamp;temperature;humidity
23715;DHT22;12036;50.858;4.472;2023-12-20T00:00:08;6.80;99.90
23715;DHT22;12036;50.858;4.472;2023-12-20T00:02:34;6.80;99.90
23715;DHT22;12036;50.858;4.472;2023-12-20T00:05:00;6.70;99.90
23715;DHT22;12036;50.858;4.472;2023-12-20T00:07:26;6.90;99.90
23715;DHT22;12036;50.858;4.472;2023-12-20T00:09:51;6.80;99.90
23715;DHT22;12036;50.858;4.472;2023-12-20T00:12:17;6.80;99.90
23715;DHT22;12036;50.858;4.472;2023-12-20T00:14:42;6.80;99.90
23715;DHT22;12036;50.858;4.472;2023-12-20T00:17:08;6.80;99.90
23715;DHT22;12036;50.858;4.472;2023-12-20T00:19:33;6.70;99.90
23715;DHT22;12036;50.858;4.472;2023-12-20T00:21:59;6.80;99.90
23715;DHT22;12036;50.858;4.472;2023-12-20T00:24:25;6.80;99.90
23715;DHT22;12036;50.858;4.472;2023-12-20T00:26:50;6.90;99.90
23715;DHT22;12036;50.858;4.472;2023-12-20T00:29:16;6.80;99.90
23715;DHT22;12036;50.858;4.472;2023-12-20T00:31:42;6.80;99.90
23715;DHT22;12036;50.858;4.472;2023-12-20T00:34:07;6.90;99.90
23715;DHT22;12036;50.858;4.472;2023-12-20T00:36:33;6.90;99.90
23715;DHT22;12036;50.858;4.472;2023-12-20T00:38:59;6.80;99.90
23715;DHT22;12036;50.858;4.472;2023-12-20T00:41:24;6.80;99.90
23715;DHT22;12036;50.858;4.472;2023-12-20T00:43:50;6.90;99.90
23715;DHT22;12036;50.858;4.472;2023-12-20T00:46:16;6.80;99.90
23715;DHT22;12036;50.858;4.472;2023-12-20T00:48:41;6.70;99.90
23715;DHT22;12036;50.858;4.472;2023-12-20T00:51:07;6.60;99.90
23715;DHT22;12036;50.858;4.472;2023-12-20T00:53:33;6.60;99.90
23715;DHT22;12036;50.858;4.472;2023-12-20T00:55:59;6.60;99.90
23715;DHT22;12036;50.858;4.472;2023-12-20T00:58:25;6.60;99.90
23715;DHT22;12036;50.858;4.472;2023-12-20T01:00:50;6.50;99.90
23715;DHT22;12036;50.858;4.472;2023-12-20T01:03:16;6.50;99.90
23715;DHT22;12036;50.858;4.472;2023-12-20T01:05:42;6.60;99.90
23715;DHT22;12036;50.858;4.472;2023-12-20T01:08:07;6.60;99.90
23715;DHT22;12036;50.858;4.472;2023-12-20T01:10:33;6.50;99.90
23715;DHT22;12036;50.858;4.472;2023-12-20T01:12:59;6.50;99.90
23715;DHT22;12036;50.858;4.472;2023-12-20T01:15:24;6.50;99.90
23715;DHT22;12036;50.858;4.472;2023-12-20T01:17:50;6.60;99.90
23715;DHT22;12036;50.858;4.472;2023-12-20T01:20:16;6.60;99.90
23715;DHT22;12036;50.858;4.472;2023-12-20T01:22:42;6.60;99.90
23715;DHT22;12036;50.858;4.472;2023-12-20T01:25:08;6.60;99.90
23715;DHT22;12036;50.858;4.472;2023-12-20T01:27:34;6.60;99.90
23715;DHT22;12036;50.858;4.472;2023-12-20T01:29:59;6.50;99.90
23715;DHT22;12036;50.858;4.472;2023-12-20T01:32:25;6.50;99.90
23715;DHT22;12036;50.858;4.472;2023-12-20T01:34:50;6.40;99.90
23715;DHT22;12036;50.858;4.472;2023-12-20T01:37:16;6.50;99.90
23715;DHT22;12036;50.858;4.472;2023-12-20T01:39:42;6.50;99.90
23715;DHT22;12036;50.858;4.472;2023-12-20T01:42:08;6.30;99.90
23715;DHT22;12036;50.858;4.472;2023-12-20T01:44:33;6.40;99.90
23715;DHT22;12036;50.858;4.472;2023-12-20T01:47:00;6.30;99.90
23715;DHT22;12036;50.858;4.472;2023-12-20T01:49:25;6.50;99.90
23715;DHT22;12036;50.858;4.472;2023-12-20T01:51:51;6.50;99.90
23715;DHT22;12036;50.858;4.472;2023-12-20T01:54:18;6.50;99.90
23715;DHT22;12036;50.858;4.472;2023-12-20T01:56:45;6.50;99.90
23715;DHT22;12036;50.858;4.472;2023-12-20T01:59:11;6.50;99.90
23715;DHT22;12036;50.858;4.472;2023-12-20T02:01:36;6.50;99.90
23715;DHT22;12036;50.858;4.472;2023-12-20T02:04:02;6.60;99.90
23715;DHT22;12036;50.858;4.472;2023-12-20T02:06:30;6.60;99.90
23715;DHT22;12036;50.858;4.472;2023-12-20T02:08:58;6.60;99.90
23715;DHT22;12036;50.858;4.472;2023-12-20T02:11:25;6.60;99.90
23715;DHT22;12036;50.858;4.472;2023-12-20T02:13:52;6.60;99.90
23715;DHT22;12036;50.858;4.472;2023-12-20T02:16:17;6.50;99.90
23715;DHT22;12036;50.858;4.472;2023-12-20T02:18:43;6.50;99.90
23715;DHT22;12036;50.858;4.472;2023-12-20T02:21:10;6.50;99.90
23715;DHT22;12036;50.858;4.472;2023-12-20T02:23:35;6.50;99.90
23715;DHT22;12036;50.858;4.472;2023-12-20T02:26:02;6.40;99.90
23715;DHT22;12036;50.858;4.472;2023-12-20T02:28:28;6.40;99.90
23715;DHT22;12036;50.858;4.472;2023-12-20T02:30:53;6.40;99.90
23715;DHT22;12036;50.858;4.472;2023-12-20T02:33:19;6.40;99.90
23715;DHT22;12036;50.858;4.472;2023-12-20T02:35:45;6.40;99.90
23715;DHT22;12036;50.858;4.472;2023-12-20T02:38:10;6.40;99.90
23715;DHT22;12036;50.858;4.472;2023-12-20T02:40:36;6.40;99.90
23715;DHT22;12036;50.858;4.472;2023-12-20T02:43:02;6.40;99.90
23715;DHT22;12036;50.858;4.472;2023-12-20T02:45:28;6.50;99.90
23715;DHT22;12036;50.858;4.472;2023-12-20T02:47:53;6.60;99.90
23715;DHT22;12036;50.858;4.472;2023-12-20T02:50:19;6.60;99.90
23715;DHT22;12036;50.858;4.472;2023-12-20T02:52:45;6.60;99.90
23715;DHT22;12036;50.858;4.472;2023-12-20T02:55:11;6.60;99.90
23715;DHT22;12036;50.858;4.472;2023-12-20T02:57:37;6.60;99.90
23715;DHT22;12036;50.858;4.472;2023-12-20T03:00:10;6.50;99.90
23715;DHT22;12036;50.858;4.472;2023-12-20T03:02:36;6.50;99.90
23715;DHT22;12036;50.858;4.472;2023-12-20T03:05:02;6.50;99.90
23715;DHT22;12036;50.858;4.472;2023-12-20T03:07:28;6.40;99.90
23715;DHT22;12036;50.858;4.472;2023-12-20T03:09:54;6.30;99.90
23715;DHT22;12036;50.858;4.472;2023-12-20T03:12:20;6.40;99.90
23715;DHT22;12036;50.858;4.472;2023-12-20T03:14:45;6.50;99.90
23715;DHT22;12036;50.858;4.472;2023-12-20T03:17:11;6.60;99.90
23715;DHT22;12036;50.858;4.472;2023-12-20T03:19:36;6.60;99.90
23715;DHT22;12036;50.858;4.472;2023-12-20T03:22:02;6.60;99.90
23715;DHT22;12036;50.858;4.472;2023-12-20T03:24:28;6.60;99.90
23715;DHT22;12036;50.858;4.472;2023-12-20T03:26:53;6.60;99.90
23715;DHT22;12036;50.858;4.472;2023-12-20T03:29:20;6.50;99.90
23715;DHT22;12036;50.858;4.472;2023-12-20T03:31:46;6.40;99.90
23715;DHT22;12036;50.858;4.472;2023-12-20T03:34:11;6.40;99.90
23715;DHT22;12036;50.858;4.472;2023-12-20T03:36:37;6.40;99.90
23715;DHT22;12036;50.858;4.472;2023-12-20T03:39:03;6.40;99.90
23715;DHT22;12036;50.858;4.472;2023-12-20T03:41:29;6.40;99.90
23715;DHT22;12036;50.858;4.472;2023-12-20T03:43:54;6.40;99.90
23715;DHT22;12036;50.858;4.472;2023-12-20T03:46:20;6.40;99.90
23715;DHT22;12036;50.858;4.472;2023-12-20T03:48:45;6.50;99.90
23715;DHT22;12036;50.858;4.472;2023-12-20T03:51:11;6.50;99.90
23715;DHT22;12036;50.858;4.472;2023-12-20T03:53:37;6.50;99.90
23715;DHT22;12036;50.858;4.472;2023-12-20T03:56:03;6.60;99.90
23715;DHT22;12036;50.858;4.472;2023-12-20T03:58:29;6.60;99.90
23715;DHT22;12036;50.858;4.472;2023-12-20T04:00:54;6.70;99.90
23715;DHT22;12036;50.858;4.472;2023-12-20T04:03:20;6.70;99.90
23715;DHT22;12036;50.858;4.472;2023-12-20T04:05:46;6.70;99.90
23715;DHT22;12036;50.858;4.472;2023-12-20T04:08:11;6.70;99.90
23715;DHT22;12036;50.858;4.472;2023-12-20T04:10:37;6.60;99.90
23715;DHT22;12036;50.858;4.472;2023-12-20T04:13:03;6.70;99.90
23715;DHT22;12036;50.858;4.472;2023-12-20T04:15:29;6.70;99.90
23715;DHT22;12036;50.858;4.472;2023-12-20T04:17:54;6.70;99.90
23715;DHT22;12036;50.858;4.472;2023-12-20T04:20:20;6.70;99.90
23715;DHT22;12036;50.858;4.472;2023-12-20T04:22:46;6.60;99.90
23715;DHT22;12036;50.858;4.472;2023-12-20T04:25:11;6.80;99.90
23715;DHT22;12036;50.858;4.472;2023-12-20T04:27:37;6.70;99.90
23715;DHT22;12036;50.858;4.472;2023-12-20T04:30:03;6.60;99.90
23715;DHT22;12036;50.858;4.472;2023-12-20T04:32:29;6.60;99.90
23715;DHT22;12036;50.858;4.472;2023-12-20T04:34:54;6.50;99.90
23715;DHT22;12036;50.858;4.472;2023-12-20T04:37:20;6.50;99.90
23715;DHT22;12036;50.858;4.472;2023-12-20T04:39:46;6.50;99.90
23715;DHT22;12036;50.858;4.472;2023-12-20T04:42:11;6.40;99.90
23715;DHT22;12036;50.858;4.472;2023-12-20T04:44:37;6.40;99.90
23715;DHT22;12036;50.858;4.472;2023-12-20T04:47:03;6.50;99.90
23715;DHT22;12036;50.858;4.472;2023-12-20T04:49:28;6.50;99.90
23715;DHT22;12036;50.858;4.472;2023-12-20T04:51:54;6.50;99.90
23715;DHT22;12036;50.858;4.472;2023-12-20T04:54:21;6.60;99.90
23715;DHT22;12036;50.858;4.472;2023-12-20T04:56:46;6.60;99.90
23715;DHT22;12036;50.858;4.472;2023-12-20T04:59:12;6.60;99.90
23715;DHT22;12036;50.858;4.472;2023-12-20T05:01:38;6.70;99.90
23715;DHT22;12036;50.858;4.472;2023-12-20T05:04:04;6.70;99.90
23715;DHT22;12036;50.858;4.472;2023-12-20T05:06:30;6.70;99.90
23715;DHT22;12036;50.858;4.472;2023-12-20T05:08:55;6.70;99.90
23715;DHT22;12036;50.858;4.472;2023-12-20T05:11:21;6.70;99.90
23715;DHT22;12036;50.858;4.472;2023-12-20T05:13:47;6.70;99.90
23715;DHT22;12036;50.858;4.472;2023-12-20T05:16:13;6.80;99.90
23715;DHT22;12036;50.858;4.472;2023-12-20T05:18:39;6.70;99.90
23715;DHT22;12036;50.858;4.472;2023-12-20T05:21:05;6.70;99.90
23715;DHT22;12036;50.858;4.472;2023-12-20T05:23:31;6.70;99.90
23715;DHT22;12036;50.858;4.472;2023-12-20T05:25:56;6.60;99.90
23715;DHT22;12036;50.858;4.472;2023-12-20T05:28:22;6.50;99.90
23715;DHT22;12036;50.858;4.472;2023-12-20T05:30:48;6.50;99.90
23715;DHT22;12036;50.858;4.472;2023-12-20T05:33:14;6.40;99.90
23715;DHT22;12036;50.858;4.472;2023-12-20T05:35:39;6.30;99.90
23715;DHT22;12036;50.858;4.472;2023-12-20T05:38:05;6.30;99.90
23715;DHT22;12036;50.858;4.472;2023-12-20T05:40:30;6.20;99.90
23715;DHT22;12036;50.858;4.472;2023-12-20T05:42:56;6.20;99.90
23715;DHT22;12036;50.858;4.472;2023-12-20T05:45:22;6.30;99.90
23715;DHT22;12036;50.858;4.472;2023-12-20T05:47:47;6.20;99.90
23715;DHT22;12036;50.858;4.472;2023-12-20T05:50:13;6.20;99.90
23715;DHT22;12036;50.858;4.472;2023-12-20T05:52:38;6.20;99.90
23715;DHT22;12036;50.858;4.472;2023-12-20T05:55:04;6.10;99.90
23715;DHT22;12036;50.858;4.472;2023-12-20T05:57:30;6.10;99.90
23715;DHT22;12036;50.858;4.472;2023-12-20T05:59:55;6.00;99.90
23715;DHT22;12036;50.858;4.472;2023-12-20T06:02:21;6.00;99.90
23715;DHT22;12036;50.858;4.472;2023-12-20T06:04:47;6.00;99.90
23715;DHT22;12036;50.858;4.472;2023-12-20T06:07:12;6.00;99.90
23715;DHT22;12036;50.858;4.472;2023-12-20T06:09:38;6.10;99.90
23715;DHT22;12036;50.858;4.472;2023-12-20T06:12:04;6.00;99.90
23715;DHT22;12036;50.858;4.472;2023-12-20T06:14:30;6.00;99.90
23715;DHT22;12036;50.858;4.472;2023-12-20T06:16:58;6.00;99.90
23715;DHT22;12036;50.858;4.472;2023-12-20T06:19:24;6.00;99.90
23715;DHT22;12036;50.858;4.472;2023-12-20T06:21:49;6.00;99.90
23715;DHT22;12036;50.858;4.472;2023-12-20T06:24:15;6.00;99.90
23715;DHT22;12036;50.858;4.472;2023-12-20T06:26:41;6.10;99.90
23715;DHT22;12036;50.858;4.472;2023-12-20T06:29:06;6.10;99.90
23715;DHT22;12036;50.858;4.472;2023-12-20T06:31:32;6.20;99.90
23715;DHT22;12036;50.858;4.472;2023-12-20T06:33:58;6.20;99.90
23715;DHT22;12036;50.858;4.472;2023-12-20T06:36:26;6.20;99.90
23715;DHT22;12036;50.858;4.472;2023-12-20T06:38:51;6.20;99.90
23715;DHT22;12036;50.858;4.472;2023-12-20T06:41:17;6.20;99.90
23715;DHT22;12036;50.858;4.472;2023-12-20T06:43:43;6.30;99.90
23715;DHT22;12036;50.858;4.472;2023-12-20T06:46:09;6.20;99.90
23715;DHT22;12036;50.858;4.472;2023-12-20T06:48:35;6.10;99.90
23715;DHT22;12036;50.858;4.472;2023-12-20T06:51:01;6.10;99.90
23715;DHT22;12036;50.858;4.472;2023-12-20T06:53:29;6.10;99.90
23715;DHT22;12036;50.858;4.472;2023-12-20T06:55:55;6.10;99.90
23715;DHT22;12036;50.858;4.472;2023-12-20T06:58:22;5.90;99.90
23715;DHT22;12036;50.858;4.472;2023-12-20T07:00:48;5.90;99.90
23715;DHT22;12036;50.858;4.472;2023-12-20T07:03:14;5.80;99.90
23715;DHT22;12036;50.858;4.472;2023-12-20T07:05:40;5.80;99.90
23715;DHT22;12036;50.858;4.472;2023-12-20T07:08:06;5.80;99.90
23715;DHT22;12036;50.858;4.472;2023-12-20T07:10:32;5.70;99.90
23715;DHT22;12036;50.858;4.472;2023-12-20T07:12:58;5.70;99.90
23715;DHT22;12036;50.858;4.472;2023-12-20T07:15:23;5.50;99.90
23715;DHT22;12036;50.858;4.472;2023-12-20T07:17:49;5.50;99.90
23715;DHT22;12036;50.858;4.472;2023-12-20T07:20:15;5.50;99.90
23715;DHT22;12036;50.858;4.472;2023-12-20T07:22:40;5.60;99.90
23715;DHT22;12036;50.858;4.472;2023-12-20T07:25:07;5.50;99.90
23715;DHT22;12036;50.858;4.472;2023-12-20T07:27:33;5.60;99.90
23715;DHT22;12036;50.858;4.472;2023-12-20T07:29:59;5.50;99.90
23715;DHT22;12036;50.858;4.472;2023-12-20T07:32:24;5.60;99.90
23715;DHT22;12036;50.858;4.472;2023-12-20T07:34:50;5.50;99.90
23715;DHT22;12036;50.858;4.472;2023-12-20T07:37:16;5.50;99.90
23715;DHT22;12036;50.858;4.472;2023-12-20T07:39:41;5.40;99.90
23715;DHT22;12036;50.858;4.472;2023-12-20T07:42:08;5.50;99.90
23715;DHT22;12036;50.858;4.472;2023-12-20T07:44:34;5.50;99.90
23715;DHT22;12036;50.858;4.472;2023-12-20T07:47:01;5.50;99.90
23715;DHT22;12036;50.858;4.472;2023-12-20T07:49:27;5.40;99.90
23715;DHT22;12036;50.858;4.472;2023-12-20T07:51:52;5.50;99.90
23715;DHT22;12036;50.858;4.472;2023-12-20T07:54:18;5.60;99.90
23715;DHT22;12036;50.858;4.472;2023-12-20T07:56:44;5.60;99.90
23715;DHT22;12036;50.858;4.472;2023-12-20T07:59:09;5.50;99.90
23715;DHT22;12036;50.858;4.472;2023-12-20T08:01:35;5.50;99.90
23715;DHT22;12036;50.858;4.472;2023-12-20T08:04:01;5.50;99.90
23715;DHT22;12036;50.858;4.472;2023-12-20T08:06:27;5.60;99.90
23715;DHT22;12036;50.858;4.472;2023-12-20T08:08:52;5.50;99.90
23715;DHT22;12036;50.858;4.472;2023-12-20T08:11:19;5.60;99.90
23715;DHT22;12036;50.858;4.472;2023-12-20T08:13:44;5.60;99.90
23715;DHT22;12036;50.858;4.472;2023-12-20T08:16:10;5.70;99.90
23715;DHT22;12036;50.858;4.472;2023-12-20T08:18:39;5.70;99.90
23715;DHT22;12036;50.858;4.472;2023-12-20T08:21:04;5.70;99.90
23715;DHT22;12036;50.858;4.472;2023-12-20T08:23:33;5.70;99.90
23715;DHT22;12036;50.858;4.472;2023-12-20T08:25:58;5.60;99.90
23715;DHT22;12036;50.858;4.472;2023-12-20T08:28:24;5.70;99.90
23715;DHT22;12036;50.858;4.472;2023-12-20T08:30:49;5.80;99.90
23715;DHT22;12036;50.858;4.472;2023-12-20T08:33:19;5.80;99.90
23715;DHT22;12036;50.858;4.472;2023-12-20T08:35:44;5.90;99.90
23715;DHT22;12036;50.858;4.472;2023-12-20T08:38:10;5.90;99.90
23715;DHT22;12036;50.858;4.472;2023-12-20T08:40:36;5.90;99.90
23715;DHT22;12036;50.858;4.472;2023-12-20T08:43:01;5.90;99.90
23715;DHT22;12036;50.858;4.472;2023-12-20T08:45:27;6.10;99.90
23715;DHT22;12036;50.858;4.472;2023-12-20T08:47:53;6.20;99.90
23715;DHT22;12036;50.858;4.472;2023-12-20T08:50:18;6.30;99.90
23715;DHT22;12036;50.858;4.472;2023-12-20T08:52:44;6.30;99.90
23715;DHT22;12036;50.858;4.472;2023-12-20T08:55:09;6.20;99.90
23715;DHT22;12036;50.858;4.472;2023-12-20T08:57:35;6.20;99.90
23715;DHT22;12036;50.858;4.472;2023-12-20T09:00:02;6.10;99.90
23715;DHT22;12036;50.858;4.472;2023-12-20T09:02:28;6.00;99.90
23715;DHT22;12036;50.858;4.472;2023-12-20T09:04:54;6.10;99.90
23715;DHT22;12036;50.858;4.472;2023-12-20T09:07:28;6.20;99.90
23715;DHT22;12036;50.858;4.472;2023-12-20T09:09:56;6.30;99.90
23715;DHT22;12036;50.858;4.472;2023-12-20T09:12:22;6.40;99.90
23715;DHT22;12036;50.858;4.472;2023-12-20T09:14:49;6.30;99.90
23715;DHT22;12036;50.858;4.472;2023-12-20T09:17:16;6.30;99.90
23715;DHT22;12036;50.858;4.472;2023-12-20T09:19:42;6.20;99.90
23715;DHT22;12036;50.858;4.472;2023-12-20T09:22:09;6.30;99.90
23715;DHT22;12036;50.858;4.472;2023-12-20T09:24:35;6.30;99.90
23715;DHT22;12036;50.858;4.472;2023-12-20T09:27:01;6.50;99.90
23715;DHT22;12036;50.858;4.472;2023-12-20T09:29:28;6.50;99.90
23715;DHT22;12036;50.858;4.472;2023-12-20T09:31:53;6.50;99.90
23715;DHT22;12036;50.858;4.472;2023-12-20T09:34:19;6.40;99.90
23715;DHT22;12036;50.858;4.472;2023-12-20T09:36:45;6.40;99.90
23715;DHT22;12036;50.858;4.472;2023-12-20T09:39:17;6.50;99.90
23715;DHT22;12036;50.858;4.472;2023-12-20T09:41:45;6.50;99.90
23715;DHT22;12036;50.858;4.472;2023-12-20T09:44:15;6.70;99.90
23715;DHT22;12036;50.858;4.472;2023-12-20T09:46:44;6.80;99.90
23715;DHT22;12036;50.858;4.472;2023-12-20T09:49:11;6.80;99.90
23715;DHT22;12036;50.858;4.472;2023-12-20T09:51:36;6.80;99.90
23715;DHT22;12036;50.858;4.472;2023-12-20T09:54:05;6.80;99.90
23715;DHT22;12036;50.858;4.472;2023-12-20T09:56:31;6.90;99.90
23715;DHT22;12036;50.858;4.472;2023-12-20T09:58:57;7.10;99.90
23715;DHT22;12036;50.858;4.472;2023-12-20T10:01:24;7.20;99.90
23715;DHT22;12036;50.858;4.472;2023-12-20T10:03:51;7.30;99.90
23715;DHT22;12036;50.858;4.472;2023-12-20T10:06:16;7.40;99.90
23715;DHT22;12036;50.858;4.472;2023-12-20T10:08:42;7.60;99.90
23715;DHT22;12036;50.858;4.472;2023-12-20T10:11:09;7.60;99.90
23715;DHT22;12036;50.858;4.472;2023-12-20T10:13:39;7.60;99.90
23715;DHT22;12036;50.858;4.472;2023-12-20T10:16:06;7.60;99.90
23715;DHT22;12036;50.858;4.472;2023-12-20T10:18:33;7.70;99.90
23715;DHT22;12036;50.858;4.472;2023-12-20T10:20:58;7.70;99.90
23715;DHT22;12036;50.858;4.472;2023-12-20T10:23:25;7.80;99.90
23715;DHT22;12036;50.858;4.472;2023-12-20T10:26:00;7.80;99.90
23715;DHT22;12036;50.858;4.472;2023-12-20T10:28:26;7.90;99.90
23715;DHT22;12036;50.858;4.472;2023-12-20T10:30:54;7.80;99.90
23715;DHT22;12036;50.858;4.472;2023-12-20T10:33:27;7.90;99.90
23715;DHT22;12036;50.858;4.472;2023-12-20T10:35:57;8.00;99.90
23715;DHT22;12036;50.858;4.472;2023-12-20T10:38:23;8.10;99.90
23715;DHT22;12036;50.858;4.472;2023-12-20T10:40:56;8.10;99.90
23715;DHT22;12036;50.858;4.472;2023-12-20T10:43:24;8.10;99.90
23715;DHT22;12036;50.858;4.472;2023-12-20T10:45:51;8.00;99.90
23715;DHT22;12036;50.858;4.472;2023-12-20T10:48:18;8.00;99.90
23715;DHT22;12036;50.858;4.472;2023-12-20T10:50:44;8.10;99.90
23715;DHT22;12036;50.858;4.472;2023-12-20T10:53:10;8.10;99.90
23715;DHT22;12036;50.858;4.472;2023-12-20T10:55:37;8.10;99.90
23715;DHT22;12036;50.858;4.472;2023-12-20T10:58:09;8.20;99.90
23715;DHT22;12036;50.858;4.472;2023-12-20T11:00:39;8.10;99.90
23715;DHT22;12036;50.858;4.472;2023-12-20T11:03:09;8.20;99.90
23715;DHT22;12036;50.858;4.472;2023-12-20T11:05:50;8.20;99.90
23715;DHT22;12036;50.858;4.472;2023-12-20T11:10:56;8.30;99.90
23715;DHT22;12036;50.858;4.472;2023-12-20T11:14:00;8.50;99.90
23715;DHT22;12036;50.858;4.472;2023-12-20T11:16:27;8.50;99.90
23715;DHT22;12036;50.858;4.472;2023-12-20T11:18:53;8.60;99.90
23715;DHT22;12036;50.858;4.472;2023-12-20T11:21:19;8.60;99.90
23715;DHT22;12036;50.858;4.472;2023-12-20T11:23:45;8.70;99.90
23715;DHT22;12036;50.858;4.472;2023-12-20T11:26:11;8.50;99.90
23715;DHT22;12036;50.858;4.472;2023-12-20T11:28:36;8.60;99.90
23715;DHT22;12036;50.858;4.472;2023-12-20T11:31:02;8.60;99.90
23715;DHT22;12036;50.858;4.472;2023-12-20T11:33:35;8.60;99.90
23715;DHT22;12036;50.858;4.472;2023-12-20T11:36:01;8.50;99.90
23715;DHT22;12036;50.858;4.472;2023-12-20T11:38:35;8.40;99.90
23715;DHT22;12036;50.858;4.472;2023-12-20T11:41:01;8.20;99.90
23715;DHT22;12036;50.858;4.472;2023-12-20T11:43:32;8.00;99.90
23715;DHT22;12036;50.858;4.472;2023-12-20T11:46:04;8.10;99.90
23715;DHT22;12036;50.858;4.472;2023-12-20T11:48:31;8.10;99.90
23715;DHT22;12036;50.858;4.472;2023-12-20T11:50:58;8.20;99.90
23715;DHT22;12036;50.858;4.472;2023-12-20T11:53:23;8.00;99.90
23715;DHT22;12036;50.858;4.472;2023-12-20T11:55:49;8.00;99.90
23715;DHT22;12036;50.858;4.472;2023-12-20T11:58:15;7.90;99.90
23715;DHT22;12036;50.858;4.472;2023-12-20T12:00:42;7.80;99.90
23715;DHT22;12036;50.858;4.472;2023-12-20T12:03:09;7.80;99.90
23715;DHT22;12036;50.858;4.472;2023-12-20T12:05:35;7.90;99.90
23715;DHT22;12036;50.858;4.472;2023-12-20T12:08:02;7.90;99.90
23715;DHT22;12036;50.858;4.472;2023-12-20T12:10:28;8.10;99.90
23715;DHT22;12036;50.858;4.472;2023-12-20T12:12:54;8.10;99.90
23715;DHT22;12036;50.858;4.472;2023-12-20T12:15:20;8.10;99.90
23715;DHT22;12036;50.858;4.472;2023-12-20T12:17:53;8.00;99.90
23715;DHT22;12036;50.858;4.472;2023-12-20T12:20:20;8.10;99.90
23715;DHT22;12036;50.858;4.472;2023-12-20T12:22:46;8.20;99.90
23715;DHT22;12036;50.858;4.472;2023-12-20T12:25:16;8.20;99.90
23715;DHT22;12036;50.858;4.472;2023-12-20T12:27:42;8.10;99.90
23715;DHT22;12036;50.858;4.472;2023-12-20T12:30:09;8.30;99.90
23715;DHT22;12036;50.858;4.472;2023-12-20T12:32:35;8.40;99.90
23715;DHT22;12036;50.858;4.472;2023-12-20T12:35:05;8.30;99.90
23715;DHT22;12036;50.858;4.472;2023-12-20T12:37:33;8.40;99.90
23715;DHT22;12036;50.858;4.472;2023-12-20T12:39:59;8.30;99.90
23715;DHT22;12036;50.858;4.472;2023-12-20T12:42:24;8.40;99.90
23715;DHT22;12036;50.858;4.472;2023-12-20T12:44:54;8.40;99.90
23715;DHT22;12036;50.858;4.472;2023-12-20T12:47:20;8.50;99.90
23715;DHT22;12036;50.858;4.472;2023-12-20T12:49:46;8.50;99.90
23715;DHT22;12036;50.858;4.472;2023-12-20T12:52:11;8.40;99.90
23715;DHT22;12036;50.858;4.472;2023-12-20T12:54:37;8.30;99.90
23715;DHT22;12036;50.858;4.472;2023-12-20T12:57:03;8.40;99.90
23715;DHT22;12036;50.858;4.472;2023-12-20T12:59:29;8.50;99.90
23715;DHT22;12036;50.858;4.472;2023-12-20T13:01:54;8.60;99.90
23715;DHT22;12036;50.858;4.472;2023-12-20T13:04:20;8.60;99.90
23715;DHT22;12036;50.858;4.472;2023-12-20T13:06:45;8.60;99.90
23715;DHT22;12036;50.858;4.472;2023-12-20T13:09:12;8.70;99.90
23715;DHT22;12036;50.858;4.472;2023-12-20T13:11:38;8.70;99.90
23715;DHT22;12036;50.858;4.472;2023-12-20T13:14:03;8.60;99.90
23715;DHT22;12036;50.858;4.472;2023-12-20T13:16:29;8.70;99.90
23715;DHT22;12036;50.858;4.472;2023-12-20T13:18:55;8.60;99.90
23715;DHT22;12036;50.858;4.472;2023-12-20T13:21:21;8.50;99.90
23715;DHT22;12036;50.858;4.472;2023-12-20T13:23:47;8.60;99.90
23715;DHT22;12036;50.858;4.472;2023-12-20T13:26:13;8.50;99.90
23715;DHT22;12036;50.858;4.472;2023-12-20T13:28:38;8.60;99.90
23715;DHT22;12036;50.858;4.472;2023-12-20T13:31:04;8.50;99.90
23715;DHT22;12036;50.858;4.472;2023-12-20T13:33:29;8.70;99.90
23715;DHT22;12036;50.858;4.472;2023-12-20T13:35:55;8.90;99.90
23715;DHT22;12036;50.858;4.472;2023-12-20T13:38:21;8.90;99.90
23715;DHT22;12036;50.858;4.472;2023-12-20T13:40:47;8.90;99.90
23715;DHT22;12036;50.858;4.472;2023-12-20T13:43:13;9.00;99.90
23715;DHT22;12036;50.858;4.472;2023-12-20T13:45:39;8.90;99.90
23715;DHT22;12036;50.858;4.472;2023-12-20T13:48:05;9.00;99.90
23715;DHT22;12036;50.858;4.472;2023-12-20T13:50:31;8.90;99.90
23715;DHT22;12036;50.858;4.472;2023-12-20T13:52:57;9.00;99.90
23715;DHT22;12036;50.858;4.472;2023-12-20T13:55:22;9.00;99.90
23715;DHT22;12036;50.858;4.472;2023-12-20T13:57:51;9.00;99.90
23715;DHT22;12036;50.858;4.472;2023-12-20T14:00:17;9.20;99.90
23715;DHT22;12036;50.858;4.472;2023-12-20T14:02:42;9.20;99.90
23715;DHT22;12036;50.858;4.472;2023-12-20T14:05:09;9.20;99.90
23715;DHT22;12036;50.858;4.472;2023-12-20T14:07:35;9.00;99.90
23715;DHT22;12036;50.858;4.472;2023-12-20T14:10:01;9.00;99.90
23715;DHT22;12036;50.858;4.472;2023-12-20T14:12:27;9.10;99.90
23715;DHT22;12036;50.858;4.472;2023-12-20T14:14:52;9.10;99.90
23715;DHT22;12036;50.858;4.472;2023-12-20T14:17:20;9.10;99.90
23715;DHT22;12036;50.858;4.472;2023-12-20T14:19:46;9.10;99.90
23715;DHT22;12036;50.858;4.472;2023-12-20T14:22:11;9.10;99.90
23715;DHT22;12036;50.858;4.472;2023-12-20T14:24:37;9.10;99.90
23715;DHT22;12036;50.858;4.472;2023-12-20T14:27:02;9.10;99.90
23715;DHT22;12036;50.858;4.472;2023-12-20T14:29:28;9.10;99.90
23715;DHT22;12036;50.858;4.472;2023-12-20T14:31:54;9.20;99.90
23715;DHT22;12036;50.858;4.472;2023-12-20T14:34:19;9.20;99.90
23715;DHT22;12036;50.858;4.472;2023-12-20T14:36:45;9.20;99.90
23715;DHT22;12036;50.858;4.472;2023-12-20T14:39:11;9.30;99.90
23715;DHT22;12036;50.858;4.472;2023-12-20T14:41:38;9.30;99.90
23715;DHT22;12036;50.858;4.472;2023-12-20T14:44:05;9.40;99.90
23715;DHT22;12036;50.858;4.472;2023-12-20T14:46:32;9.30;99.90
23715;DHT22;12036;50.858;4.472;2023-12-20T14:48:57;9.30;99.90
23715;DHT22;12036;50.858;4.472;2023-12-20T14:51:23;9.30;99.90
23715;DHT22;12036;50.858;4.472;2023-12-20T14:53:50;9.40;99.90
23715;DHT22;12036;50.858;4.472;2023-12-20T14:56:15;9.40;99.90
23715;DHT22;12036;50.858;4.472;2023-12-20T14:58:41;9.30;99.90
23715;DHT22;12036;50.858;4.472;2023-12-20T15:01:07;9.30;99.90
23715;DHT22;12036;50.858;4.472;2023-12-20T15:03:34;9.40;99.90
23715;DHT22;12036;50.858;4.472;2023-12-20T15:06:00;9.50;99.90
23715;DHT22;12036;50.858;4.472;2023-12-20T15:08:26;9.40;99.90
23715;DHT22;12036;50.858;4.472;2023-12-20T15:10:52;9.40;99.90
23715;DHT22;12036;50.858;4.472;2023-12-20T15:13:17;9.40;99.90
23715;DHT22;12036;50.858;4.472;2023-12-20T15:15:43;9.40;99.90
23715;DHT22;12036;50.858;4.472;2023-12-20T15:18:09;9.50;99.90
23715;DHT22;12036;50.858;4.472;2023-12-20T15:20:35;9.50;99.90
23715;DHT22;12036;50.858;4.472;2023-12-20T15:23:02;9.60;99.90
23715;DHT22;12036;50.858;4.472;2023-12-20T15:25:32;9.60;99.90
23715;DHT22;12036;50.858;4.472;2023-12-20T15:27:58;9.60;99.90
23715;DHT22;12036;50.858;4.472;2023-12-20T15:30:23;9.50;99.90
23715;DHT22;12036;50.858;4.472;2023-12-20T15:32:50;9.50;99.90
23715;DHT22;12036;50.858;4.472;2023-12-20T15:35:16;9.50;99.90
23715;DHT22;12036;50.858;4.472;2023-12-20T15:37:42;9.40;99.90
23715;DHT22;12036;50.858;4.472;2023-12-20T15:40:08;9.50;99.90